Time;durP1;ratioP1;P1;durP2;ratioP2;P2;SDS_P1;SDS_P2;PMS_P1;PMS_P2;Temp;Humidity;BMP_temperature;BMP_pressure;BME280_temperature;BME280_humidity;BME280_pressure;Samples;Min_cycle;Max_cycle;Signal;HPM_P1;HPM_P2
2022/09/07 00:00:28;;;;;;;3.03;2.57;;;;;;;18.04;100.00;100210.16;6295084;28;20040;-75
2022/09/07 00:03:29;;;;;;;3.42;2.40;;;;;;;18.14;100.00;100211.00;6296254;28;20049;-74
2022/09/07 00:06:33;;;;;;;3.42;2.67;;;;;;;18.17;100.00;100226.53;6294920;28;20473;-73
2022/09/07 00:09:36;;;;;;;3.92;2.72;;;;;;;18.01;100.00;100227.09;6294836;28;20393;-74
2022/09/07 00:12:37;;;;;;;3.30;2.53;;;;;;;17.98;100.00;100227.38;6294672;28;20123;-74
2022/09/07 00:15:39;;;;;;;4.30;2.40;;;;;;;18.00;100.00;100222.78;6295910;28;20456;-77
2022/09/07 00:18:40;;;;;;;3.75;2.38;;;;;;;17.92;100.00;100210.28;6295191;28;20430;-74
2022/09/07 00:21:40;;;;;;;4.40;2.50;;;;;;;17.80;100.00;100213.16;6294532;28;20131;-74
2022/09/07 00:24:41;;;;;;;11.10;3.38;;;;;;;17.85;100.00;100200.38;6295797;28;20040;-77
2022/09/07 00:27:42;;;;;;;3.20;2.28;;;;;;;17.89;100.00;100207.06;6295747;28;20044;-74
2022/09/07 00:30:45;;;;;;;2.95;2.50;;;;;;;17.84;100.00;100201.38;6294261;28;20260;-74
2022/09/07 00:33:48;;;;;;;3.55;2.70;;;;;;;17.89;100.00;100207.06;6294063;28;20467;-74
2022/09/07 00:36:48;;;;;;;3.75;2.72;;;;;;;17.96;100.00;100202.91;6294161;28;20045;-73
2022/09/07 00:39:50;;;;;;;3.03;2.50;;;;;;;17.98;100.00;100205.44;6295314;28;20053;-75
2022/09/07 00:42:53;;;;;;;4.07;2.58;;;;;;;17.96;100.00;100202.09;6295507;28;20049;-73
2022/09/07 00:45:54;;;;;;;3.05;2.60;;;;;;;17.92;100.00;100214.72;6294054;28;20071;-73
2022/09/07 00:49:21;;;;;;;3.57;2.67;;;;;;;17.95;100.00;100214.44;6295196;28;20473;-77
2022/09/07 00:52:25;;;;;;;2.95;2.38;;;;;;;17.78;100.00;100201.88;6292965;28;20098;-77
2022/09/07 00:55:26;;;;;;;3.38;2.40;;;;;;;17.69;100.00;100200.91;6293998;28;20041;-74
2022/09/07 00:58:29;;;;;;;3.63;2.73;;;;;;;17.57;100.00;100192.25;6295174;28;20101;-77
2022/09/07 01:01:33;;;;;;;3.00;2.55;;;;;;;17.40;100.00;100171.78;6295078;28;20041;-74
2022/09/07 01:04:35;;;;;;;2.60;2.35;;;;;;;17.23;100.00;100176.75;6293885;28;20041;-74
2022/09/07 01:07:36;;;;;;;2.50;2.05;;;;;;;17.26;100.00;100173.03;6294997;28;20400;-73
2022/09/07 01:10:37;;;;;;;2.25;2.00;;;;;;;17.23;100.00;100182.00;6293624;28;20049;-76
2022/09/07 01:13:41;;;;;;;3.28;2.53;;;;;;;17.20;100.00;100182.28;6293760;28;20416;-75
2022/09/07 01:16:52;;;;;;;2.90;2.40;;;;;;;17.22;100.00;100180.34;6293709;28;20135;-76
2022/09/07 01:20:28;;;;;;;2.72;2.35;;;;;;;17.29;100.00;100172.75;6293684;28;20063;-76
2022/09/07 01:23:55;;;;;;;5.63;2.65;;;;;;;17.27;100.00;100164.94;6243482;28;20132;-75
2022/09/07 01:27:17;;;;;;;2.85;2.35;;;;;;;17.30;100.00;100166.50;6293714;28;20048;-76
2022/09/07 01:30:22;;;;;;;2.35;1.92;;;;;;;17.28;100.00;100164.00;6295170;28;20064;-76
2022/09/07 01:33:50;;;;;;;3.42;2.50;;;;;;;17.25;100.00;100166.91;6299905;28;20032;-73
2022/09/07 01:37:06;;;;;;;4.38;2.13;;;;;;;17.14;100.00;100163.53;6299668;28;20074;-74
2022/09/07 01:40:16;;;;;;;3.55;2.33;;;;;;;17.18;100.00;100152.59;6299342;28;20501;-73
2022/09/07 01:43:30;;;;;;;2.55;2.25;;;;;;;17.23;100.00;100160.91;6299503;28;20040;-73
2022/09/07 01:46:42;;;;;;;4.40;2.25;;;;;;;17.25;100.00;100158.97;6298334;28;20408;-73
2022/09/07 01:50:01;;;;;;;3.08;2.28;;;;;;;17.18;100.00;100154.41;6298184;28;20459;-75
2022/09/07 01:53:14;;;;;;;3.55;2.65;;;;;;;17.14;100.00;100153.00;6298181;28;20037;-75
2022/09/07 01:56:23;;;;;;;3.03;2.17;;;;;;;17.07;100.00;100153.53;6299303;28;20060;-75
2022/09/07 01:59:27;;;;;;;3.42;2.40;;;;;;;17.13;100.00;100160.03;6297882;28;20498;-74
2022/09/07 02:02:38;;;;;;;2.85;2.60;;;;;;;17.11;100.00;100154.94;6299074;28;20051;-75
2022/09/07 02:05:57;;;;;;;3.70;2.88;;;;;;;17.10;100.00;100157.69;6297815;28;20124;-73
2022/09/07 02:09:03;;;;;;;2.53;2.30;;;;;;;17.15;100.00;100146.75;6297784;28;20048;-76
2022/09/07 02:12:13;;;;;;;3.17;2.58;;;;;;;17.19;100.00;100148.16;6297779;28;20044;-73
2022/09/07 02:15:21;;;;;;;3.70;2.70;;;;;;;17.21;100.00;100147.03;6331505;28;20412;-75
2022/09/07 02:18:24;;;;;;;3.05;2.53;;;;;;;17.22;100.00;100145.25;6298663;28;20036;-73
2022/09/07 02:21:32;;;;;;;7.75;2.60;;;;;;;17.25;100.00;100142.34;6297381;28;20044;-73
2022/09/07 02:24:38;;;;;;;3.28;2.28;;;;;;;17.26;100.00;100141.38;6298539;28;20037;-73
2022/09/07 02:27:44;;;;;;;2.80;2.33;;;;;;;17.24;100.00;100136.22;6298407;28;20378;-73
2022/09/07 02:30:47;;;;;;;3.20;2.78;;;;;;;17.25;100.00;100135.25;6298276;28;20041;-74
2022/09/07 02:33:48;;;;;;;2.55;2.33;;;;;;;17.20;100.00;100139.28;6297133;28;20535;-75
2022/09/07 02:36:51;;;;;;;2.88;2.30;;;;;;;17.21;100.00;100138.28;6298298;28;20045;-75
2022/09/07 02:39:54;;;;;;;4.57;2.65;;;;;;;17.22;100.00;100127.63;6296855;28;20125;-73
2022/09/07 02:43:01;;;;;;;3.33;2.22;;;;;;;17.10;100.00;100124.25;6297538;28;20051;-75
2022/09/07 02:46:30;;;;;;;3.38;2.30;;;;;;;17.22;100.00;100127.63;6296940;28;20064;-75
2022/09/07 02:49:45;;;;;;;2.90;2.58;;;;;;;17.18;100.00;100133.31;6296819;28;20048;-75
2022/09/07 02:53:03;;;;;;;2.83;2.50;;;;;;;17.09;100.00;100129.66;6297893;28;20072;-75
2022/09/07 02:56:22;;;;;;;3.13;2.15;;;;;;;17.04;100.00;100142.41;6296594;28;20044;-73
2022/09/07 02:59:50;;;;;;;2.42;2.05;;;;;;;17.00;100.00;100133.94;6296790;28;20545;-73
2022/09/07 03:03:43;;;;;;;4.35;2.50;;;;;;;16.97;100.00;100134.22;6297733;28;20051;-73
2022/09/07 03:06:51;;;;;;;2.72;2.20;;;;;;;16.90;100.00;100128.63;6266693;28;20570;-73
2022/09/07 03:09:56;;;;;;;2.72;2.28;;;;;;;16.88;100.00;100121.81;6297656;28;20044;-75
2022/09/07 03:12:56;;;;;;;3.33;2.45;;;;;;;16.87;100.00;100125.44;6296215;28;20382;-74
2022/09/07 03:15:57;;;;;;;2.85;2.38;;;;;;;16.97;100.00;100125.47;6297561;28;20072;-73
2022/09/07 03:18:58;;;;;;;4.40;2.40;;;;;;;16.90;100.00;100123.38;6297422;28;20048;-75
2022/09/07 03:22:01;;;;;;;3.25;2.50;;;;;;;16.87;100.00;100123.63;6297315;28;20047;-75
2022/09/07 03:25:04;;;;;;;2.92;2.15;;;;;;;17.03;100.00;100127.56;6297204;28;20124;-76
2022/09/07 03:28:09;;;;;;;3.05;2.40;;;;;;;17.01;100.00;100125.06;6312941;28;20044;-75
2022/09/07 03:31:10;;;;;;;3.97;2.72;;;;;;;16.89;100.00;100134.88;6295721;28;20488;-75
2022/09/07 03:34:11;;;;;;;2.97;2.30;;;;;;;16.90;100.00;100133.06;6295874;28;20043;-75
2022/09/07 03:37:11;;;;;;;2.90;2.37;;;;;;;16.98;100.00;100132.41;6296907;28;20041;-75
2022/09/07 03:40:14;;;;;;;3.60;2.72;;;;;;;16.94;100.00;100136.25;6295421;28;20056;-75
2022/09/07 03:43:17;;;;;;;3.03;2.20;;;;;;;16.85;100.00;100130.00;6295516;28;20109;-73
2022/09/07 03:46:21;;;;;;;3.00;2.40;;;;;;;16.89;100.00;100140.13;6296613;28;20041;-73
2022/09/07 03:49:21;;;;;;;3.10;2.30;;;;;;;16.87;100.00;100131.53;6296654;28;20044;-75
2022/09/07 03:52:22;;;;;;;4.15;2.72;;;;;;;16.82;100.00;100128.47;6296436;28;20386;-75
2022/09/07 03:55:23;;;;;;;4.55;2.88;;;;;;;16.88;100.00;100129.72;6295421;28;20032;-75
2022/09/07 03:58:24;;;;;;;2.95;2.35;;;;;;;16.81;100.00;100123.31;6296359;28;20127;-73
2022/09/07 04:01:25;;;;;;;4.95;2.50;;;;;;;16.74;100.00;100123.00;6295260;28;20481;-76
2022/09/07 04:04:27;;;;;;;2.33;2.10;;;;;;;16.60;100.00;100125.97;6294913;28;20045;-75
2022/09/07 04:07:27;;;;;;;3.05;2.20;;;;;;;16.61;100.00;100128.44;6296103;28;20064;-72
2022/09/07 04:10:30;;;;;;;3.33;2.55;;;;;;;16.58;100.00;100131.34;6298136;28;20044;-75
2022/09/07 04:13:33;;;;;;;2.10;1.90;;;;;;;16.65;100.00;100145.66;6340078;27;20050;-73
2022/09/07 04:16:34;;;;;;;3.30;2.45;;;;;;;16.67;100.00;100145.53;6301914;28;20045;-75
2022/09/07 04:19:34;;;;;;;2.78;2.50;;;;;;;16.72;100.00;100141.56;6296070;28;20083;-74
2022/09/07 04:22:35;;;;;;;3.38;2.55;;;;;;;16.68;100.00;100140.16;6299840;28;20048;-72
2022/09/07 04:25:36;;;;;;;3.35;2.42;;;;;;;16.73;100.00;100139.75;6294723;28;20127;-75
2022/09/07 04:28:39;;;;;;;2.63;2.28;;;;;;;16.69;100.00;100148.88;6313870;28;20123;-75
2022/09/07 04:31:40;;;;;;;3.83;2.47;;;;;;;16.68;100.00;100144.59;6320668;28;20036;-74
2022/09/07 04:34:41;;;;;;;2.33;2.13;;;;;;;16.71;100.00;100157.47;6319684;28;20421;-72
2022/09/07 04:37:44;;;;;;;6.18;2.58;;;;;;;16.75;100.00;100152.78;6303209;28;20066;-75
2022/09/07 04:40:47;;;;;;;2.58;2.33;;;;;;;16.78;100.00;100150.75;6300800;28;20732;-72
2022/09/07 04:43:52;;;;;;;3.45;2.58;;;;;;;16.76;100.00;100143.91;6277352;28;20408;-75
2022/09/07 04:46:52;;;;;;;4.00;2.33;;;;;;;16.80;100.00;100142.69;6307446;28;20472;-72
2022/09/07 04:49:53;;;;;;;2.92;2.30;;;;;;;16.77;100.00;100143.78;6295390;28;20045;-72
2022/09/07 04:52:54;;;;;;;3.50;2.50;;;;;;;16.63;100.00;100146.75;6296168;28;20072;-72
2022/09/07 04:55:57;;;;;;;3.53;2.75;;;;;;;16.66;100.00;100141.25;6302397;28;20044;-75
2022/09/07 04:58:59;;;;;;;2.55;2.28;;;;;;;16.62;100.00;100138.03;6316593;28;20040;-76
2022/09/07 05:02:02;;;;;;;3.83;2.78;;;;;;;16.67;100.00;100149.00;6320303;28;20036;-75
2022/09/07 05:05:05;;;;;;;;;;;;;;;16.73;100.00;100150.28;6320109;28;20051;-73
2022/09/07 05:08:06;;;;;;;3.35;2.30;;;;;;;16.70;100.00;100148.75;6291050;28;19920;-73
2022/09/07 05:11:08;;;;;;;3.60;2.60;;;;;;;16.72;100.00;100148.63;6299887;28;20476;-75
2022/09/07 05:14:09;;;;;;;3.35;2.60;;;;;;;16.71;100.00;100150.41;6306416;28;20033;-75
2022/09/07 05:17:10;;;;;;;3.15;2.65;;;;;;;16.78;100.00;100147.25;6306320;28;20047;-75
2022/09/07 05:20:13;;;;;;;2.97;2.53;;;;;;;16.90;100.00;100151.50;6302826;28;20044;-73
2022/09/07 05:23:13;;;;;;;2.80;2.53;;;;;;;16.77;100.00;100148.22;6296042;28;20072;-73
2022/09/07 05:26:14;;;;;;;5.60;2.83;;;;;;;16.77;100.00;100142.97;6297220;28;20484;-75
2022/09/07 05:29:15;;;;;;;2.85;2.28;;;;;;;16.78;100.00;100148.09;6317108;28;20044;-75
2022/09/07 05:32:19;;;;;;;3.40;2.53;;;;;;;16.81;100.00;100153.13;6310387;28;20086;-75
2022/09/07 05:35:19;;;;;;;2.80;2.33;;;;;;;16.71;100.00;100154.84;6294649;28;20051;-75
2022/09/07 05:38:21;;;;;;;5.97;2.83;;;;;;;16.98;100.00;100161.38;6294450;28;20083;-75
2022/09/07 05:41:23;;;;;;;4.00;2.60;;;;;;;17.08;100.00;100157.81;6308538;28;20048;-75
2022/09/07 05:44:24;;;;;;;3.00;2.70;;;;;;;17.22;100.00;100153.16;6307632;28;20497;-73
2022/09/07 05:47:27;;;;;;;4.18;3.00;;;;;;;17.24;100.00;100157.31;6308127;28;20060;-73
2022/09/07 05:50:28;;;;;;;4.35;2.80;;;;;;;17.32;100.00;100160.13;6293218;28;20600;-73
2022/09/07 05:53:29;;;;;;;2.92;2.63;;;;;;;17.35;100.00;100158.19;6309516;28;20071;-72
2022/09/07 05:56:34;;;;;;;4.68;2.78;;;;;;;17.49;100.00;100163.91;6294007;28;20041;-75
2022/09/07 05:59:34;;;;;;;4.68;2.92;;;;;;;17.61;100.00;100172.56;6292736;28;20572;-75
2022/09/07 06:02:35;;;;;;;3.40;3.10;;;;;;;17.69;100.00;100175.34;6293045;28;20041;-75
2022/09/07 06:05:36;;;;;;;3.67;2.90;;;;;;;17.81;100.00;100177.84;6292929;28;20460;-75
2022/09/07 06:08:42;;;;;;;3.20;2.72;;;;;;;17.84;100.00;100169.69;6309829;28;20147;-73
2022/09/07 06:11:43;;;;;;;3.65;2.85;;;;;;;17.97;100.00;100166.78;6293957;28;20554;-73
2022/09/07 06:14:43;;;;;;;6.18;2.85;;;;;;;17.79;100.00;100170.09;6294103;28;20053;-75
2022/09/07 06:17:47;;;;;;;2.85;2.40;;;;;;;18.01;100.00;100173.47;6311808;28;20280;-74
2022/09/07 06:20:48;;;;;;;4.97;3.30;;;;;;;18.16;100.00;100180.00;6298517;28;20044;-72
2022/09/07 06:23:50;;;;;;;4.18;2.83;;;;;;;18.20;100.00;100180.53;6297203;28;20549;-75
2022/09/07 06:26:50;;;;;;;5.78;3.15;;;;;;;18.37;100.00;100181.66;6297294;28;20049;-75
2022/09/07 06:29:51;;;;;;;3.33;2.70;;;;;;;18.57;100.00;100179.78;6298395;28;20036;-75
2022/09/07 06:32:52;;;;;;;5.25;2.90;;;;;;;18.77;100.00;100176.13;6296954;28;20051;-75
2022/09/07 06:35:55;;;;;;;5.18;2.55;;;;;;;18.86;100.00;100179.75;6298323;28;20064;-75
2022/09/07 06:39:00;;;;;;;3.97;3.08;;;;;;;19.14;100.00;100185.91;6330374;28;20140;-75
2022/09/07 06:42:02;;;;;;;4.65;3.10;;;;;;;19.23;100.00;100195.63;6298085;28;20042;-75
2022/09/07 06:45:03;;;;;;;5.95;3.03;;;;;;;19.37;100.00;100189.00;6296526;28;20416;-74
2022/09/07 06:48:04;;;;;;;3.08;2.47;;;;;;;19.49;100.00;100193.13;6313590;28;20135;-72
2022/09/07 06:51:12;;;;;;;3.28;2.45;;;;;;;19.55;100.00;100191.69;6296442;28;20053;-75
2022/09/07 06:54:13;;;;;;;3.38;2.45;;;;;;;19.63;100.00;100185.69;6313178;28;20048;-72
2022/09/07 06:57:14;;;;;;;2.80;2.43;;;;;;;19.77;100.00;100193.13;6296572;28;20477;-75
2022/09/07 07:00:15;;;;;;;3.47;2.17;;;;;;;19.95;100.00;100187.00;6279751;28;20197;-75
2022/09/07 07:03:19;;;;;;;2.60;2.05;;;;;;;20.07;100.00;100202.50;6296311;28;20052;-72
2022/09/07 07:06:20;;;;;;;3.13;2.63;;;;;;;20.16;100.00;100206.09;6296183;28;20091;-75
2022/09/07 07:09:21;;;;;;;2.88;2.13;;;;;;;20.36;100.00;100198.78;6296337;28;20052;-72
2022/09/07 07:12:22;;;;;;;2.30;2.10;;;;;;;20.43;100.00;100197.22;6296081;28;20106;-74
2022/09/07 07:15:29;;;;;;;2.80;2.15;;;;;;;20.58;100.00;100201.94;6295941;28;20060;-74
2022/09/07 07:18:30;;;;;;;2.28;2.08;;;;;;;20.73;100.00;100211.88;6297162;28;20037;-72
2022/09/07 07:21:31;;;;;;;3.67;2.30;;;;;;;20.89;100.00;100203.16;6297212;28;20041;-75
2022/09/07 07:24:32;;;;;;;3.03;2.17;;;;;;;21.08;100.00;100196.81;6296049;28;20067;-75
2022/09/07 07:27:35;;;;;;;3.77;2.60;;;;;;;21.18;100.00;100198.50;6295764;28;20055;-75
2022/09/07 07:30:36;;;;;;;2.50;2.22;;;;;;;21.20;100.00;100200.00;6295537;28;20497;-75
2022/09/07 07:33:37;;;;;;;4.27;2.50;;;;;;;21.36;100.00;100209.06;6296804;28;20086;-75
2022/09/07 07:36:40;;;;;;;4.18;2.55;;;;;;;21.51;100.00;100204.81;6312294;28;20516;-75
2022/09/07 07:39:41;;;;;;;3.53;2.47;;;;;;;21.64;100.00;100202.53;6312057;28;20126;-73
2022/09/07 07:42:42;;;;;;;2.70;2.13;;;;;;;21.80;100.00;100208.88;6295352;28;20117;-73
2022/09/07 07:45:46;;;;;;;3.13;2.67;;;;;;;21.89;100.00;100215.88;6295301;28;20054;-72
2022/09/07 07:48:47;;;;;;;3.50;2.55;;;;;;;22.07;100.00;100210.41;6295237;28;20101;-75
2022/09/07 07:51:51;;;;;;;6.95;2.72;;;;;;;22.29;100.00;100215.09;6296308;28;20257;-75
2022/09/07 07:54:52;;;;;;;3.95;2.35;;;;;;;22.44;100.00;100214.44;6295122;28;20051;-75
2022/09/07 07:57:53;;;;;;;5.27;2.50;;;;;;;22.61;100.00;100212.59;6294904;28;20056;-75
2022/09/07 08:00:59;;;;;;;4.10;2.80;;;;;;;22.78;99.59;100206.28;6294940;28;20036;-72
2022/09/07 08:03:59;;;;;;;3.20;2.40;;;;;;;22.73;91.97;100206.78;6294588;28;20293;-73
2022/09/07 08:07:02;;;;;;;5.63;2.83;;;;;;;22.69;90.41;100208.13;6296108;28;20090;-75
2022/09/07 08:10:03;;;;;;;3.10;2.60;;;;;;;22.69;88.89;100202.81;6278041;28;20059;-72
2022/09/07 08:13:04;;;;;;;3.83;2.53;;;;;;;22.83;95.13;100203.91;6295848;28;20036;-74
2022/09/07 08:16:06;;;;;;;3.92;2.42;;;;;;;22.98;92.65;100201.41;6294590;28;20289;-72
2022/09/07 08:19:06;;;;;;;4.97;2.85;;;;;;;22.98;92.71;100201.41;6294442;28;20041;-72
2022/09/07 08:22:09;;;;;;;5.03;3.00;;;;;;;23.11;87.95;100198.22;6294611;28;20102;-72
2022/09/07 08:25:10;;;;;;;3.30;2.40;;;;;;;23.21;87.20;100195.38;6295557;28;20044;-72
2022/09/07 08:28:11;;;;;;;3.43;3.10;;;;;;;23.34;89.17;100200.97;6294461;28;20044;-74
2022/09/07 08:31:16;;;;;;;4.57;3.10;;;;;;;23.22;85.00;100200.50;6277455;28;20445;-75
2022/09/07 08:34:17;;;;;;;4.47;3.00;;;;;;;23.54;86.75;100198.72;6327874;28;20044;-72
2022/09/07 08:37:19;;;;;;;3.43;3.00;;;;;;;23.53;81.98;100191.72;6293920;28;20053;-75
2022/09/07 08:40:22;;;;;;;5.47;2.80;;;;;;;23.73;81.93;100184.94;6293429;28;20497;-75
2022/09/07 08:43:29;;;;;;;5.38;3.40;;;;;;;23.86;79.51;100191.56;6295108;28;20044;-75
2022/09/07 08:46:54;;;;;;;5.90;3.28;;;;;;;23.94;82.92;100175.50;6277269;28;20662;-75
2022/09/07 08:49:57;;;;;;;4.15;3.13;;;;;;;23.99;80.28;100186.50;6293695;28;20523;-72
2022/09/07 08:53:13;;;;;;;3.67;2.92;;;;;;;24.21;76.77;100184.78;6295088;28;20093;-75
2022/09/07 08:56:36;;;;;;;4.28;3.05;;;;;;;24.29;78.49;100170.56;6327407;28;20107;-75
2022/09/07 08:59:45;;;;;;;4.05;2.85;;;;;;;24.47;77.69;100175.59;6295015;28;20093;-75
2022/09/07 09:02:46;;;;;;;4.03;2.75;;;;;;;24.55;76.45;100175.53;6294921;28;20097;-73
2022/09/07 09:06:02;;;;;;;5.60;3.10;;;;;;;24.59;74.25;100170.69;6294893;28;20313;-75
2022/09/07 09:09:45;;;;;;;4.57;3.10;;;;;;;24.69;75.42;100169.41;6276884;28;20804;-75
2022/09/07 09:13:08;;;;;;;4.18;3.10;;;;;;;24.87;73.34;100165.53;6283315;28;20079;-72
2022/09/07 09:16:09;;;;;;;5.18;3.13;;;;;;;25.06;76.37;100158.78;6310330;28;20048;-75
2022/09/07 09:19:47;;;;;;;3.15;2.60;;;;;;;25.31;76.40;100162.03;6294745;28;20052;-72
2022/09/07 09:22:51;;;;;;;5.07;3.20;;;;;;;25.51;75.39;100152.41;6293444;28;20314;-72
2022/09/07 09:25:54;;;;;;;3.55;2.70;;;;;;;25.38;73.61;100160.25;6293276;28;20524;-72
2022/09/07 09:28:56;;;;;;;3.92;2.90;;;;;;;25.54;71.47;100153.88;6293446;28;20485;-72
2022/09/07 09:31:57;;;;;;;4.18;3.00;;;;;;;25.55;68.06;100150.16;6276545;28;20082;-72
2022/09/07 09:35:34;;;;;;;4.00;3.10;;;;;;;25.10;70.26;100147.59;6293385;28;20048;-75
2022/09/07 09:38:43;;;;;;;3.92;2.75;;;;;;;25.57;71.38;100147.31;6243489;28;20141;-74
2022/09/07 09:41:43;;;;;;;4.78;2.97;;;;;;;25.89;69.85;100154.03;6294458;28;20055;-74
2022/09/07 09:44:45;;;;;;;4.47;2.60;;;;;;;25.95;70.68;100157.81;6293199;28;20037;-75
2022/09/07 09:47:51;;;;;;;3.20;2.55;;;;;;;25.93;68.96;100149.97;6294427;28;20033;-72
2022/09/07 09:50:55;;;;;;;3.45;2.95;;;;;;;26.46;64.82;100152.22;6292934;28;20463;-72
2022/09/07 09:54:15;;;;;;;5.47;2.78;;;;;;;25.95;71.48;100157.81;6298654;28;20036;-73
2022/09/07 09:57:36;;;;;;;3.72;2.78;;;;;;;25.49;68.84;100142.91;6299082;28;20041;-72
2022/09/07 10:00:52;;;;;;;3.37;3.03;;;;;;;25.34;75.08;100149.13;6298944;28;20561;-72
2022/09/07 10:03:53;;;;;;;3.22;2.58;;;;;;;25.58;70.77;100144.47;6299032;28;20284;-73
2022/09/07 10:07:13;;;;;;;4.13;2.63;;;;;;;26.06;69.48;100144.72;6297460;28;20059;-72
2022/09/07 10:10:15;;;;;;;3.38;2.63;;;;;;;26.23;69.27;100133.75;6314638;28;20053;-72
2022/09/07 10:13:26;;;;;;;4.25;2.53;;;;;;;26.63;63.62;100147.47;6298809;28;20048;-75
2022/09/07 10:16:41;;;;;;;2.88;2.45;;;;;;;27.18;64.23;100147.53;6297293;28;20059;-75
2022/09/07 10:19:42;;;;;;;5.10;2.40;;;;;;;27.25;61.16;100149.22;6297425;28;20048;-75
2022/09/07 10:22:44;;;;;;;;;;;;;;;27.45;59.88;100154.66;6281016;28;20056;-73
2022/09/07 10:25:46;;;;;;;4.00;2.40;;;;;;;27.32;60.35;100147.41;6314181;28;19928;-75
2022/09/07 10:28:47;;;;;;;3.72;2.63;;;;;;;27.68;57.77;100142.78;6314092;28;20048;-75
2022/09/07 10:32:09;;;;;;;5.20;2.57;;;;;;;27.50;56.83;100148.69;6298228;28;20045;-74
2022/09/07 10:35:16;;;;;;;3.35;2.40;;;;;;;27.85;56.93;100145.88;6298190;28;20843;-75
2022/09/07 10:38:23;;;;;;;3.50;2.63;;;;;;;27.35;59.82;100140.00;6313741;28;20075;-73
2022/09/07 10:42:00;;;;;;;5.03;2.85;;;;;;;27.38;60.09;100128.88;6280130;28;20045;-73
2022/09/07 10:45:25;;;;;;;3.28;2.47;;;;;;;27.62;58.09;100135.53;6317626;28;20048;-73
2022/09/07 10:48:37;;;;;;;3.47;2.50;;;;;;;27.88;58.67;100138.28;6296578;28;20055;-75
2022/09/07 10:51:40;;;;;;;2.97;2.60;;;;;;;27.83;54.70;100139.91;6313431;28;20048;-72
2022/09/07 10:55:02;;;;;;;3.60;2.60;;;;;;;27.76;55.96;100129.16;6330377;28;20467;-74
2022/09/07 10:58:27;;;;;;;3.25;2.60;;;;;;;27.69;57.21;100139.03;6296537;28;20481;-75
2022/09/07 11:01:46;;;;;;;3.42;2.78;;;;;;;28.17;55.67;100130.88;6296239;28;20091;-74
2022/09/07 11:05:01;;;;;;;2.55;2.35;;;;;;;27.33;57.41;100134.84;6312609;28;20141;-73
2022/09/07 11:08:02;;;;;;;2.83;2.55;;;;;;;27.59;57.31;100127.88;6313035;28;20052;-73
2022/09/07 11:11:20;;;;;;;3.60;2.57;;;;;;;27.29;58.05;100125.56;6313065;28;20056;-75
2022/09/07 11:14:26;;;;;;;3.40;2.80;;;;;;;27.25;55.70;100118.94;6296114;28;20511;-75
2022/09/07 11:17:29;;;;;;;4.10;2.97;;;;;;;27.87;57.04;100117.84;6279306;28;20424;-73
2022/09/07 11:20:43;;;;;;;4.97;3.08;;;;;;;27.96;54.33;100123.03;6295862;28;20055;-73
2022/09/07 11:23:53;;;;;;;4.00;3.50;;;;;;;27.83;56.86;100119.25;6295948;28;20102;-72
2022/09/07 11:26:59;;;;;;;3.15;2.83;;;;;;;28.12;57.91;100119.94;6297331;28;20123;-73
2022/09/07 11:30:14;;;;;;;3.88;2.80;;;;;;;28.12;51.55;100111.88;6295812;28;20149;-75
2022/09/07 11:33:20;;;;;;;4.50;3.10;;;;;;;27.55;56.24;100108.75;6296913;28;20093;-72
2022/09/07 11:36:24;;;;;;;3.88;3.00;;;;;;;27.88;54.67;100103.44;6296751;28;20124;-75
2022/09/07 11:39:37;;;;;;;5.05;3.40;;;;;;;28.14;52.99;100099.91;6296595;28;20053;-75
2022/09/07 11:42:51;;;;;;;4.18;3.50;;;;;;;28.19;52.51;100098.44;6295523;28;20463;-74
2022/09/07 11:46:19;;;;;;;4.43;3.58;;;;;;;28.05;56.99;100094.97;6295174;28;20052;-74
2022/09/07 11:49:23;;;;;;;5.45;3.63;;;;;;;28.10;53.57;100095.16;6278580;28;20075;-75
2022/09/07 11:52:39;;;;;;;4.82;3.80;;;;;;;28.17;53.73;100093.31;6295260;28;20040;-75
2022/09/07 11:55:45;;;;;;;4.57;3.65;;;;;;;28.38;54.52;100092.25;6294927;28;20135;-75
2022/09/07 11:59:20;;;;;;;3.92;3.53;;;;;;;28.12;53.42;100083.19;6294838;28;20079;-75
2022/09/07 12:02:52;;;;;;;4.22;3.20;;;;;;;28.32;56.57;100077.00;6294844;28;20068;-73
2022/09/07 12:06:53;;;;;;;4.22;3.50;;;;;;;27.79;59.11;100077.00;6296073;28;20036;-72
2022/09/07 12:10:13;;;;;;;4.40;3.47;;;;;;;27.94;57.50;100074.94;6226805;28;20108;-75
2022/09/07 12:13:52;;;;;;;4.75;3.70;;;;;;;27.83;56.13;100068.34;6246351;28;20045;-75
2022/09/07 12:17:27;;;;;;;8.77;3.40;;;;;;;28.00;57.43;100067.94;6295398;28;20072;-74
2022/09/07 12:20:39;;;;;;;4.50;3.58;;;;;;;28.24;56.04;100064.63;6295649;28;20124;-73
2022/09/07 12:23:44;;;;;;;3.88;3.45;;;;;;;28.38;52.15;100068.09;6294795;28;20291;-75
2022/09/07 12:26:48;;;;;;;4.07;3.58;;;;;;;28.19;49.92;100061.75;6295978;28;20044;-75
2022/09/07 12:30:10;;;;;;;3.78;3.20;;;;;;;28.42;53.84;100063.16;6328300;28;20049;-73
2022/09/07 12:33:38;;;;;;;4.55;3.38;;;;;;;28.19;54.14;100051.03;6327769;28;20488;-75
2022/09/07 12:36:48;;;;;;;5.85;3.67;;;;;;;28.32;54.19;100052.84;6274997;28;20083;-75
2022/09/07 12:39:49;;;;;;;5.30;3.92;;;;;;;28.34;53.21;100051.59;6310807;28;20056;-73
2022/09/07 12:43:12;;;;;;;7.45;4.03;;;;;;;28.21;52.92;100056.16;6293902;28;20102;-75
2022/09/07 12:46:43;;;;;;;4.55;3.50;;;;;;;28.24;52.05;100050.38;6295079;28;20048;-72
2022/09/07 12:49:47;;;;;;;4.13;3.47;;;;;;;28.29;53.65;100051.41;6295174;28;20036;-74
2022/09/07 12:53:09;;;;;;;4.50;3.63;;;;;;;27.96;58.58;100038.03;6295024;28;20123;-75
2022/09/07 12:56:39;;;;;;;6.28;3.90;;;;;;;27.53;53.28;100036.59;6295105;28;20047;-72
2022/09/07 12:59:50;;;;;;;7.30;3.45;;;;;;;27.30;58.33;100044.16;6293813;28;20064;-72
2022/09/07 13:03:20;;;;;;;6.03;3.90;;;;;;;26.98;57.68;100037.69;6310530;28;20052;-75
2022/09/07 13:06:24;;;;;;;4.78;3.88;;;;;;;27.28;59.88;100047.06;6293802;28;20044;-75
2022/09/07 13:09:29;;;;;;;4.57;3.78;;;;;;;27.50;54.90;100038.84;6293536;28;20044;-75
2022/09/07 13:12:34;;;;;;;6.40;4.18;;;;;;;27.43;57.01;100036.16;6293453;28;20486;-74
2022/09/07 13:15:48;;;;;;;4.72;3.70;;;;;;;27.49;60.13;100029.16;6294782;28;20064;-75
2022/09/07 13:18:50;;;;;;;4.35;3.88;;;;;;;27.59;59.07;100029.56;6294613;28;20400;-72
2022/09/07 13:21:53;;;;;;;6.00;4.10;;;;;;;27.85;56.70;100027.91;6293427;28;20055;-73
2022/09/07 13:24:58;;;;;;;4.80;4.07;;;;;;;27.87;54.81;100025.88;6294644;28;20173;-74
2022/09/07 13:28:04;;;;;;;4.88;4.00;;;;;;;27.88;56.02;100020.31;6298106;28;20045;-72
2022/09/07 13:31:16;;;;;;;5.65;4.28;;;;;;;27.71;53.39;100017.19;6315201;28;20064;-73
2022/09/07 13:34:36;;;;;;;4.30;3.70;;;;;;;27.73;55.64;100023.16;6315329;28;20139;-75
2022/09/07 13:38:03;;;;;;;8.65;4.22;;;;;;;27.78;54.33;100019.88;6314990;28;20045;-74
2022/09/07 13:41:16;;;;;;;5.55;3.92;;;;;;;27.91;53.32;100021.75;6296030;28;20139;-72
2022/09/07 13:44:22;;;;;;;4.40;3.63;;;;;;;28.06;51.96;100013.47;6299531;28;20125;-73
2022/09/07 13:47:31;;;;;;;6.25;4.10;;;;;;;27.98;52.36;100016.38;6298133;28;20412;-73
2022/09/07 13:50:35;;;;;;;5.38;3.97;;;;;;;27.97;52.04;100004.03;6299292;28;20115;-72
2022/09/07 13:53:54;;;;;;;4.35;3.90;;;;;;;27.88;53.96;100004.25;6299301;28;20039;-73
2022/09/07 13:57:19;;;;;;;4.80;3.97;;;;;;;27.96;53.15;100005.03;6297842;28;20057;-72
2022/09/07 14:00:27;;;;;;;4.80;4.00;;;;;;;28.01;50.68;100000.72;6299188;28;20210;-72
2022/09/07 14:03:43;;;;;;;6.72;4.13;;;;;;;28.01;51.53;100005.25;6314655;28;20048;-75
2022/09/07 14:06:44;;;;;;;4.40;4.00;;;;;;;28.13;51.56;99988.31;6281032;28;20052;-75
2022/09/07 14:09:48;;;;;;;4.28;3.88;;;;;;;27.99;54.45;99994.72;6298883;28;20048;-75
2022/09/07 14:13:10;;;;;;;5.50;4.35;;;;;;;27.93;52.18;99992.88;6297409;28;20045;-75
2022/09/07 14:16:11;;;;;;;4.82;4.25;;;;;;;27.88;51.05;99988.16;6297410;28;20062;-72
2022/09/07 14:19:18;;;;;;;7.00;4.40;;;;;;;27.62;50.34;99988.97;6298602;28;20484;-75
2022/09/07 14:22:25;;;;;;;4.63;3.97;;;;;;;27.54;49.03;99981.13;6298582;28;20037;-73
2022/09/07 14:25:26;;;;;;;4.97;4.20;;;;;;;27.45;49.79;99980.53;6297091;28;20050;-75
2022/09/07 14:28:29;;;;;;;5.43;4.43;;;;;;;27.46;52.40;99973.28;6297396;28;20036;-75